sensor_id;sensor_type;location;lat;lon;timestamp;P1;durP1;ratioP1;P2;durP2;ratioP2
4210;SDS011;2119;48.828;12.396;2022-07-23T00:01:41;13.13;;;11.77;;
4210;SDS011;2119;48.828;12.396;2022-07-23T00:06:42;12.30;;;11.30;;
4210;SDS011;2119;48.828;12.396;2022-07-23T00:11:42;13.60;;;12.00;;
4210;SDS011;2119;48.828;12.396;2022-07-23T00:16:42;13.37;;;11.97;;
4210;SDS011;2119;48.828;12.396;2022-07-23T00:21:42;13.13;;;11.93;;
4210;SDS011;2119;48.828;12.396;2022-07-23T00:26:43;13.80;;;12.43;;
4210;SDS011;2119;48.828;12.396;2022-07-23T00:31:43;16.37;;;13.50;;
4210;SDS011;2119;48.828;12.396;2022-07-23T00:36:43;14.40;;;13.00;;
4210;SDS011;2119;48.828;12.396;2022-07-23T00:41:44;14.50;;;13.07;;
4210;SDS011;2119;48.828;12.396;2022-07-23T00:46:48;13.70;;;12.17;;
4210;SDS011;2119;48.828;12.396;2022-07-23T00:51:49;14.97;;;13.10;;
4210;SDS011;2119;48.828;12.396;2022-07-23T00:56:49;14.07;;;12.77;;
4210;SDS011;2119;48.828;12.396;2022-07-23T01:01:49;13.40;;;12.00;;
4210;SDS011;2119;48.828;12.396;2022-07-23T01:06:50;13.18;;;11.63;;
4210;SDS011;2119;48.828;12.396;2022-07-23T01:11:50;12.88;;;11.65;;
4210;SDS011;2119;48.828;12.396;2022-07-23T01:16:51;12.20;;;11.13;;
4210;SDS011;2119;48.828;12.396;2022-07-23T01:21:52;20.60;;;11.60;;
4210;SDS011;2119;48.828;12.396;2022-07-23T01:26:53;12.57;;;11.47;;
4210;SDS011;2119;48.828;12.396;2022-07-23T01:31:53;13.50;;;12.27;;
4210;SDS011;2119;48.828;12.396;2022-07-23T01:36:53;12.97;;;11.67;;
4210;SDS011;2119;48.828;12.396;2022-07-23T01:41:53;13.33;;;12.10;;
4210;SDS011;2119;48.828;12.396;2022-07-23T01:46:55;12.60;;;11.50;;
4210;SDS011;2119;48.828;12.396;2022-07-23T01:51:55;14.67;;;13.27;;
4210;SDS011;2119;48.828;12.396;2022-07-23T01:57:01;13.73;;;12.53;;
4210;SDS011;2119;48.828;12.396;2022-07-23T02:02:01;13.70;;;12.40;;
4210;SDS011;2119;48.828;12.396;2022-07-23T02:07:04;14.83;;;13.17;;
4210;SDS011;2119;48.828;12.396;2022-07-23T02:12:04;14.60;;;13.10;;
4210;SDS011;2119;48.828;12.396;2022-07-23T02:17:04;15.20;;;13.70;;
4210;SDS011;2119;48.828;12.396;2022-07-23T02:22:05;17.17;;;14.10;;
4210;SDS011;2119;48.828;12.396;2022-07-23T02:27:05;14.37;;;12.20;;
4210;SDS011;2119;48.828;12.396;2022-07-23T02:32:06;13.97;;;12.67;;
4210;SDS011;2119;48.828;12.396;2022-07-23T02:37:06;16.90;;;12.53;;
4210;SDS011;2119;48.828;12.396;2022-07-23T02:42:08;14.50;;;12.90;;
4210;SDS011;2119;48.828;12.396;2022-07-23T02:47:08;10.60;;;9.60;;
4210;SDS011;2119;48.828;12.396;2022-07-23T02:52:09;10.60;;;9.47;;
4210;SDS011;2119;48.828;12.396;2022-07-23T02:57:10;9.20;;;8.40;;
4210;SDS011;2119;48.828;12.396;2022-07-23T03:02:10;8.00;;;7.40;;
4210;SDS011;2119;48.828;12.396;2022-07-23T03:07:10;7.77;;;7.10;;
4210;SDS011;2119;48.828;12.396;2022-07-23T03:12:11;8.00;;;7.20;;
4210;SDS011;2119;48.828;12.396;2022-07-23T03:17:11;8.57;;;6.60;;
4210;SDS011;2119;48.828;12.396;2022-07-23T03:22:11;6.93;;;6.32;;
4210;SDS011;2119;48.828;12.396;2022-07-23T03:27:11;7.40;;;6.80;;
4210;SDS011;2119;48.828;12.396;2022-07-23T03:32:12;6.40;;;5.73;;
4210;SDS011;2119;48.828;12.396;2022-07-23T03:37:12;8.53;;;6.57;;
4210;SDS011;2119;48.828;12.396;2022-07-23T03:42:12;6.10;;;5.60;;
4210;SDS011;2119;48.828;12.396;2022-07-23T03:47:13;6.00;;;5.50;;
4210;SDS011;2119;48.828;12.396;2022-07-23T03:52:13;6.53;;;5.93;;
4210;SDS011;2119;48.828;12.396;2022-07-23T03:57:13;6.67;;;6.07;;
4210;SDS011;2119;48.828;12.396;2022-07-23T04:02:13;9.40;;;6.57;;
4210;SDS011;2119;48.828;12.396;2022-07-23T04:07:14;6.93;;;6.37;;
4210;SDS011;2119;48.828;12.396;2022-07-23T04:12:14;7.20;;;6.60;;
4210;SDS011;2119;48.828;12.396;2022-07-23T04:17:14;7.22;;;6.72;;
4210;SDS011;2119;48.828;12.396;2022-07-23T04:22:15;6.57;;;6.07;;
4210;SDS011;2119;48.828;12.396;2022-07-23T04:27:15;7.60;;;6.80;;
4210;SDS011;2119;48.828;12.396;2022-07-23T04:32:16;8.00;;;6.60;;
4210;SDS011;2119;48.828;12.396;2022-07-23T04:37:16;6.50;;;5.97;;
4210;SDS011;2119;48.828;12.396;2022-07-23T04:42:18;7.03;;;5.53;;
4210;SDS011;2119;48.828;12.396;2022-07-23T04:47:18;7.00;;;6.40;;
4210;SDS011;2119;48.828;12.396;2022-07-23T04:52:20;7.90;;;7.13;;
4210;SDS011;2119;48.828;12.396;2022-07-23T04:57:20;7.07;;;6.47;;
4210;SDS011;2119;48.828;12.396;2022-07-23T05:02:20;6.97;;;6.47;;
4210;SDS011;2119;48.828;12.396;2022-07-23T05:07:20;8.90;;;7.10;;
4210;SDS011;2119;48.828;12.396;2022-07-23T05:12:22;6.97;;;6.37;;
4210;SDS011;2119;48.828;12.396;2022-07-23T05:17:23;7.57;;;6.97;;
4210;SDS011;2119;48.828;12.396;2022-07-23T05:22:23;7.93;;;7.13;;
4210;SDS011;2119;48.828;12.396;2022-07-23T05:27:23;6.80;;;6.30;;
4210;SDS011;2119;48.828;12.396;2022-07-23T05:32:24;6.73;;;6.13;;
4210;SDS011;2119;48.828;12.396;2022-07-23T05:37:24;9.23;;;6.90;;
4210;SDS011;2119;48.828;12.396;2022-07-23T05:42:24;7.00;;;6.10;;
4210;SDS011;2119;48.828;12.396;2022-07-23T05:47:25;6.80;;;6.30;;
4210;SDS011;2119;48.828;12.396;2022-07-23T05:52:25;7.63;;;6.93;;
4210;SDS011;2119;48.828;12.396;2022-07-23T05:57:25;6.40;;;5.80;;
4210;SDS011;2119;48.828;12.396;2022-07-23T06:02:25;6.40;;;5.90;;
4210;SDS011;2119;48.828;12.396;2022-07-23T06:07:26;7.47;;;6.17;;
4210;SDS011;2119;48.828;12.396;2022-07-23T06:12:26;5.77;;;5.37;;
4210;SDS011;2119;48.828;12.396;2022-07-23T06:17:26;4.90;;;4.50;;
4210;SDS011;2119;48.828;12.396;2022-07-23T06:22:27;5.57;;;5.20;;
4210;SDS011;2119;48.828;12.396;2022-07-23T06:27:27;4.93;;;4.63;;
4210;SDS011;2119;48.828;12.396;2022-07-23T06:32:27;5.13;;;4.70;;
4210;SDS011;2119;48.828;12.396;2022-07-23T06:37:27;5.40;;;5.00;;
4210;SDS011;2119;48.828;12.396;2022-07-23T06:42:28;5.10;;;4.60;;
4210;SDS011;2119;48.828;12.396;2022-07-23T06:47:28;5.10;;;4.68;;
4210;SDS011;2119;48.828;12.396;2022-07-23T06:52:28;4.73;;;4.43;;
4210;SDS011;2119;48.828;12.396;2022-07-23T06:57:29;4.77;;;4.47;;
4210;SDS011;2119;48.828;12.396;2022-07-23T07:02:29;5.23;;;4.83;;
4210;SDS011;2119;48.828;12.396;2022-07-23T07:07:29;4.55;;;4.18;;
4210;SDS011;2119;48.828;12.396;2022-07-23T07:12:29;5.38;;;4.97;;
4210;SDS011;2119;48.828;12.396;2022-07-23T07:17:30;5.27;;;4.83;;
4210;SDS011;2119;48.828;12.396;2022-07-23T07:22:31;5.80;;;5.30;;
4210;SDS011;2119;48.828;12.396;2022-07-23T07:27:49;6.00;;;5.33;;
4210;SDS011;2119;48.828;12.396;2022-07-23T07:32:54;6.07;;;5.60;;
4210;SDS011;2119;48.828;12.396;2022-07-23T07:37:54;6.40;;;5.90;;
4210;SDS011;2119;48.828;12.396;2022-07-23T07:42:54;7.13;;;5.33;;
4210;SDS011;2119;48.828;12.396;2022-07-23T07:47:56;6.70;;;6.10;;
4210;SDS011;2119;48.828;12.396;2022-07-23T07:53:00;5.90;;;5.40;;
4210;SDS011;2119;48.828;12.396;2022-07-23T07:58:01;9.83;;;6.03;;
4210;SDS011;2119;48.828;12.396;2022-07-23T08:03:01;6.90;;;6.13;;
4210;SDS011;2119;48.828;12.396;2022-07-23T08:08:01;6.60;;;6.10;;
4210;SDS011;2119;48.828;12.396;2022-07-23T08:13:03;5.93;;;5.53;;
4210;SDS011;2119;48.828;12.396;2022-07-23T08:18:03;7.03;;;5.90;;
4210;SDS011;2119;48.828;12.396;2022-07-23T08:23:04;7.47;;;6.97;;
4210;SDS011;2119;48.828;12.396;2022-07-23T08:28:07;7.07;;;6.57;;
4210;SDS011;2119;48.828;12.396;2022-07-23T08:33:09;7.03;;;6.33;;
4210;SDS011;2119;48.828;12.396;2022-07-23T08:38:15;6.67;;;6.03;;
4210;SDS011;2119;48.828;12.396;2022-07-23T08:43:17;6.70;;;6.20;;
4210;SDS011;2119;48.828;12.396;2022-07-23T08:48:17;6.40;;;6.00;;
4210;SDS011;2119;48.828;12.396;2022-07-23T08:53:18;7.47;;;6.80;;
4210;SDS011;2119;48.828;12.396;2022-07-23T08:58:19;6.47;;;6.07;;
4210;SDS011;2119;48.828;12.396;2022-07-23T09:03:20;7.50;;;7.00;;
4210;SDS011;2119;48.828;12.396;2022-07-23T09:34:07;9.23;;;8.17;;
4210;SDS011;2119;48.828;12.396;2022-07-23T09:39:08;9.40;;;8.63;;
4210;SDS011;2119;48.828;12.396;2022-07-23T09:44:09;9.57;;;8.67;;
4210;SDS011;2119;48.828;12.396;2022-07-23T09:49:12;7.97;;;7.37;;
4210;SDS011;2119;48.828;12.396;2022-07-23T09:54:26;8.10;;;7.43;;
4210;SDS011;2119;48.828;12.396;2022-07-23T09:59:31;8.40;;;7.90;;
4210;SDS011;2119;48.828;12.396;2022-07-23T10:04:33;8.70;;;8.10;;
4210;SDS011;2119;48.828;12.396;2022-07-23T10:09:35;9.10;;;8.20;;
4210;SDS011;2119;48.828;12.396;2022-07-23T10:14:38;8.70;;;8.10;;
4210;SDS011;2119;48.828;12.396;2022-07-23T10:19:38;8.53;;;7.90;;
4210;SDS011;2119;48.828;12.396;2022-07-23T10:35:03;8.63;;;8.03;;
4210;SDS011;2119;48.828;12.396;2022-07-23T11:00:27;7.70;;;7.30;;
4210;SDS011;2119;48.828;12.396;2022-07-23T11:05:44;7.13;;;6.63;;
4210;SDS011;2119;48.828;12.396;2022-07-23T11:10:46;6.73;;;6.33;;
4210;SDS011;2119;48.828;12.396;2022-07-23T11:31:33;7.10;;;6.63;;
4210;SDS011;2119;48.828;12.396;2022-07-23T11:37:08;7.20;;;6.70;;
4210;SDS011;2119;48.828;12.396;2022-07-23T11:42:02;7.03;;;6.53;;
4210;SDS011;2119;48.828;12.396;2022-07-23T11:47:08;7.03;;;6.63;;
4210;SDS011;2119;48.828;12.396;2022-07-23T11:52:13;11.07;;;7.10;;
4210;SDS011;2119;48.828;12.396;2022-07-23T11:57:14;6.73;;;6.33;;
4210;SDS011;2119;48.828;12.396;2022-07-23T12:02:14;6.88;;;6.47;;
4210;SDS011;2119;48.828;12.396;2022-07-23T12:12:24;6.83;;;6.40;;
4210;SDS011;2119;48.828;12.396;2022-07-23T12:17:29;5.60;;;5.30;;
4210;SDS011;2119;48.828;12.396;2022-07-23T12:22:40;5.50;;;5.20;;
4210;SDS011;2119;48.828;12.396;2022-07-23T12:27:41;6.20;;;5.90;;
4210;SDS011;2119;48.828;12.396;2022-07-23T12:32:42;6.73;;;6.33;;
4210;SDS011;2119;48.828;12.396;2022-07-23T12:37:44;7.47;;;6.87;;
4210;SDS011;2119;48.828;12.396;2022-07-23T12:42:45;6.60;;;6.20;;
4210;SDS011;2119;48.828;12.396;2022-07-23T12:47:59;7.17;;;6.87;;
4210;SDS011;2119;48.828;12.396;2022-07-23T12:53:03;7.80;;;7.17;;
4210;SDS011;2119;48.828;12.396;2022-07-23T12:58:07;8.60;;;8.10;;
4210;SDS011;2119;48.828;12.396;2022-07-23T13:03:19;9.57;;;8.97;;
4210;SDS011;2119;48.828;12.396;2022-07-23T13:08:20;8.90;;;8.40;;
4210;SDS011;2119;48.828;12.396;2022-07-23T13:13:24;7.83;;;7.43;;
4210;SDS011;2119;48.828;12.396;2022-07-23T13:18:25;8.70;;;8.20;;
4210;SDS011;2119;48.828;12.396;2022-07-23T13:23:26;8.60;;;8.00;;
4210;SDS011;2119;48.828;12.396;2022-07-23T13:28:26;7.87;;;7.37;;
4210;SDS011;2119;48.828;12.396;2022-07-23T13:33:27;9.00;;;8.40;;
4210;SDS011;2119;48.828;12.396;2022-07-23T13:38:27;7.90;;;7.30;;
4210;SDS011;2119;48.828;12.396;2022-07-23T13:43:27;8.23;;;7.73;;
4210;SDS011;2119;48.828;12.396;2022-07-23T13:48:27;8.23;;;7.73;;
4210;SDS011;2119;48.828;12.396;2022-07-23T13:53:29;8.80;;;8.30;;
4210;SDS011;2119;48.828;12.396;2022-07-23T13:58:29;7.73;;;7.33;;
4210;SDS011;2119;48.828;12.396;2022-07-23T14:03:29;7.93;;;7.50;;
4210;SDS011;2119;48.828;12.396;2022-07-23T14:08:29;8.30;;;7.80;;
4210;SDS011;2119;48.828;12.396;2022-07-23T14:13:30;9.03;;;8.23;;
4210;SDS011;2119;48.828;12.396;2022-07-23T14:18:30;8.80;;;8.10;;
4210;SDS011;2119;48.828;12.396;2022-07-23T14:23:30;7.97;;;7.30;;
4210;SDS011;2119;48.828;12.396;2022-07-23T14:28:32;8.40;;;7.90;;
4210;SDS011;2119;48.828;12.396;2022-07-23T14:33:33;8.97;;;8.37;;
4210;SDS011;2119;48.828;12.396;2022-07-23T14:38:33;8.93;;;8.30;;
4210;SDS011;2119;48.828;12.396;2022-07-23T14:43:33;8.57;;;7.93;;
4210;SDS011;2119;48.828;12.396;2022-07-23T14:48:34;9.30;;;8.50;;
4210;SDS011;2119;48.828;12.396;2022-07-23T14:53:34;8.47;;;7.87;;
4210;SDS011;2119;48.828;12.396;2022-07-23T14:58:34;7.77;;;7.27;;
4210;SDS011;2119;48.828;12.396;2022-07-23T15:03:35;9.23;;;8.60;;
4210;SDS011;2119;48.828;12.396;2022-07-23T15:08:35;8.07;;;7.67;;
4210;SDS011;2119;48.828;12.396;2022-07-23T15:13:36;8.50;;;8.00;;
4210;SDS011;2119;48.828;12.396;2022-07-23T15:18:36;8.53;;;8.00;;
4210;SDS011;2119;48.828;12.396;2022-07-23T15:23:37;9.83;;;9.23;;
4210;SDS011;2119;48.828;12.396;2022-07-23T15:28:39;10.67;;;9.77;;
4210;SDS011;2119;48.828;12.396;2022-07-23T15:33:39;10.63;;;9.63;;
4210;SDS011;2119;48.828;12.396;2022-07-23T15:38:40;11.97;;;11.10;;
4210;SDS011;2119;48.828;12.396;2022-07-23T15:43:40;11.23;;;10.23;;
4210;SDS011;2119;48.828;12.396;2022-07-23T15:48:40;11.50;;;10.60;;
4210;SDS011;2119;48.828;12.396;2022-07-23T15:53:41;10.20;;;9.20;;
4210;SDS011;2119;48.828;12.396;2022-07-23T15:58:41;10.03;;;9.33;;
4210;SDS011;2119;48.828;12.396;2022-07-23T16:03:41;9.67;;;8.83;;
4210;SDS011;2119;48.828;12.396;2022-07-23T16:08:42;10.70;;;9.80;;
4210;SDS011;2119;48.828;12.396;2022-07-23T16:13:42;9.27;;;8.67;;
4210;SDS011;2119;48.828;12.396;2022-07-23T16:18:43;10.13;;;9.43;;
4210;SDS011;2119;48.828;12.396;2022-07-23T16:23:43;9.63;;;9.03;;
4210;SDS011;2119;48.828;12.396;2022-07-23T16:28:44;9.30;;;8.70;;
4210;SDS011;2119;48.828;12.396;2022-07-23T16:33:44;9.07;;;8.37;;
4210;SDS011;2119;48.828;12.396;2022-07-23T16:38:44;8.90;;;8.20;;
4210;SDS011;2119;48.828;12.396;2022-07-23T16:43:45;7.90;;;7.40;;
4210;SDS011;2119;48.828;12.396;2022-07-23T16:48:45;9.40;;;8.77;;
4210;SDS011;2119;48.828;12.396;2022-07-23T16:53:45;8.23;;;7.63;;
4210;SDS011;2119;48.828;12.396;2022-07-23T16:58:46;7.70;;;7.10;;
4210;SDS011;2119;48.828;12.396;2022-07-23T17:03:46;7.53;;;7.03;;
4210;SDS011;2119;48.828;12.396;2022-07-23T17:08:46;8.23;;;7.53;;
4210;SDS011;2119;48.828;12.396;2022-07-23T17:13:46;7.88;;;7.35;;
4210;SDS011;2119;48.828;12.396;2022-07-23T17:18:47;7.20;;;6.80;;
4210;SDS011;2119;48.828;12.396;2022-07-23T17:23:47;8.60;;;7.90;;
4210;SDS011;2119;48.828;12.396;2022-07-23T17:28:47;8.07;;;7.57;;
4210;SDS011;2119;48.828;12.396;2022-07-23T17:33:47;7.90;;;7.40;;
4210;SDS011;2119;48.828;12.396;2022-07-23T17:38:49;7.80;;;7.27;;
4210;SDS011;2119;48.828;12.396;2022-07-23T17:43:51;9.00;;;8.30;;
4210;SDS011;2119;48.828;12.396;2022-07-23T17:48:51;8.27;;;7.60;;
4210;SDS011;2119;48.828;12.396;2022-07-23T17:53:51;8.32;;;7.72;;
4210;SDS011;2119;48.828;12.396;2022-07-23T17:58:52;19.13;;;9.00;;
4210;SDS011;2119;48.828;12.396;2022-07-23T18:03:52;8.80;;;8.20;;
4210;SDS011;2119;48.828;12.396;2022-07-23T18:08:52;8.90;;;8.30;;
4210;SDS011;2119;48.828;12.396;2022-07-23T18:13:52;9.03;;;8.43;;
4210;SDS011;2119;48.828;12.396;2022-07-23T18:18:53;8.80;;;8.20;;
4210;SDS011;2119;48.828;12.396;2022-07-23T18:23:53;8.87;;;8.07;;
4210;SDS011;2119;48.828;12.396;2022-07-23T18:28:53;8.47;;;7.97;;
4210;SDS011;2119;48.828;12.396;2022-07-23T18:33:54;11.27;;;9.60;;
4210;SDS011;2119;48.828;12.396;2022-07-23T18:38:54;10.63;;;9.90;;
4210;SDS011;2119;48.828;12.396;2022-07-23T18:43:54;9.57;;;8.88;;
4210;SDS011;2119;48.828;12.396;2022-07-23T18:48:55;8.37;;;7.77;;
4210;SDS011;2119;48.828;12.396;2022-07-23T18:53:55;8.90;;;8.20;;
4210;SDS011;2119;48.828;12.396;2022-07-23T18:58:55;8.00;;;7.30;;
4210;SDS011;2119;48.828;12.396;2022-07-23T19:03:56;9.40;;;8.60;;
4210;SDS011;2119;48.828;12.396;2022-07-23T19:08:56;8.47;;;7.80;;
4210;SDS011;2119;48.828;12.396;2022-07-23T19:13:56;9.77;;;8.77;;
4210;SDS011;2119;48.828;12.396;2022-07-23T19:18:57;9.13;;;8.50;;
4210;SDS011;2119;48.828;12.396;2022-07-23T19:23:57;10.27;;;9.57;;
4210;SDS011;2119;48.828;12.396;2022-07-23T19:28:57;10.30;;;9.40;;
4210;SDS011;2119;48.828;12.396;2022-07-23T19:33:57;11.00;;;10.10;;
4210;SDS011;2119;48.828;12.396;2022-07-23T19:38:58;9.83;;;9.03;;
4210;SDS011;2119;48.828;12.396;2022-07-23T19:43:58;10.33;;;9.43;;
4210;SDS011;2119;48.828;12.396;2022-07-23T19:48:58;10.77;;;9.80;;
4210;SDS011;2119;48.828;12.396;2022-07-23T19:53:59;10.07;;;9.27;;
4210;SDS011;2119;48.828;12.396;2022-07-23T19:58:59;10.40;;;9.60;;
4210;SDS011;2119;48.828;12.396;2022-07-23T20:04:00;11.80;;;10.83;;
4210;SDS011;2119;48.828;12.396;2022-07-23T20:09:00;10.77;;;9.80;;
4210;SDS011;2119;48.828;12.396;2022-07-23T20:14:01;12.97;;;11.90;;
4210;SDS011;2119;48.828;12.396;2022-07-23T20:19:01;11.43;;;10.53;;
4210;SDS011;2119;48.828;12.396;2022-07-23T20:24:02;11.07;;;10.07;;
4210;SDS011;2119;48.828;12.396;2022-07-23T20:29:05;10.30;;;9.40;;
4210;SDS011;2119;48.828;12.396;2022-07-23T20:34:05;12.43;;;11.27;;
4210;SDS011;2119;48.828;12.396;2022-07-23T20:39:07;11.30;;;10.40;;
4210;SDS011;2119;48.828;12.396;2022-07-23T20:44:08;12.93;;;11.83;;
4210;SDS011;2119;48.828;12.396;2022-07-23T20:49:10;11.80;;;10.70;;
4210;SDS011;2119;48.828;12.396;2022-07-23T20:54:11;12.50;;;11.20;;
4210;SDS011;2119;48.828;12.396;2022-07-23T20:59:11;12.00;;;11.00;;
4210;SDS011;2119;48.828;12.396;2022-07-23T21:04:11;11.67;;;10.77;;
4210;SDS011;2119;48.828;12.396;2022-07-23T21:09:12;12.20;;;11.03;;
4210;SDS011;2119;48.828;12.396;2022-07-23T21:14:12;12.63;;;11.60;;
4210;SDS011;2119;48.828;12.396;2022-07-23T21:19:12;12.67;;;11.57;;
4210;SDS011;2119;48.828;12.396;2022-07-23T21:24:14;12.90;;;11.80;;
4210;SDS011;2119;48.828;12.396;2022-07-23T21:29:15;13.73;;;12.63;;
4210;SDS011;2119;48.828;12.396;2022-07-23T21:34:15;13.90;;;12.70;;
4210;SDS011;2119;48.828;12.396;2022-07-23T21:39:15;13.23;;;12.03;;
4210;SDS011;2119;48.828;12.396;2022-07-23T21:44:17;14.67;;;13.27;;
4210;SDS011;2119;48.828;12.396;2022-07-23T21:49:17;13.17;;;12.17;;
4210;SDS011;2119;48.828;12.396;2022-07-23T21:54:18;14.97;;;13.67;;
4210;SDS011;2119;48.828;12.396;2022-07-23T21:59:18;14.03;;;12.80;;
4210;SDS011;2119;48.828;12.396;2022-07-23T22:04:19;14.10;;;12.90;;
4210;SDS011;2119;48.828;12.396;2022-07-23T22:09:19;14.67;;;13.43;;
4210;SDS011;2119;48.828;12.396;2022-07-23T22:14:19;13.80;;;12.77;;
4210;SDS011;2119;48.828;12.396;2022-07-23T22:19:20;14.90;;;13.47;;
4210;SDS011;2119;48.828;12.396;2022-07-23T22:24:20;15.40;;;13.97;;
4210;SDS011;2119;48.828;12.396;2022-07-23T22:29:20;14.88;;;13.38;;
4210;SDS011;2119;48.828;12.396;2022-07-23T22:34:20;14.40;;;13.00;;
4210;SDS011;2119;48.828;12.396;2022-07-23T22:39:21;13.87;;;12.27;;
4210;SDS011;2119;48.828;12.396;2022-07-23T22:44:21;14.40;;;13.00;;
4210;SDS011;2119;48.828;12.396;2022-07-23T22:49:21;15.13;;;13.53;;
4210;SDS011;2119;48.828;12.396;2022-07-23T22:54:21;14.70;;;13.30;;
4210;SDS011;2119;48.828;12.396;2022-07-23T22:59:22;13.17;;;11.97;;
4210;SDS011;2119;48.828;12.396;2022-07-23T23:04:22;14.45;;;13.18;;
4210;SDS011;2119;48.828;12.396;2022-07-23T23:09:22;13.40;;;12.05;;
4210;SDS011;2119;48.828;12.396;2022-07-23T23:14:24;13.23;;;12.13;;
4210;SDS011;2119;48.828;12.396;2022-07-23T23:19:24;14.07;;;12.87;;
4210;SDS011;2119;48.828;12.396;2022-07-23T23:24:24;12.60;;;11.63;;
4210;SDS011;2119;48.828;12.396;2022-07-23T23:29:25;14.93;;;13.53;;
4210;SDS011;2119;48.828;12.396;2022-07-23T23:34:25;15.63;;;14.13;;
4210;SDS011;2119;48.828;12.396;2022-07-23T23:39:26;14.30;;;12.93;;
4210;SDS011;2119;48.828;12.396;2022-07-23T23:44:26;12.97;;;11.87;;
4210;SDS011;2119;48.828;12.396;2022-07-23T23:49:26;11.83;;;10.93;;
4210;SDS011;2119;48.828;12.396;2022-07-23T23:54:27;12.05;;;11.05;;
4210;SDS011;2119;48.828;12.396;2022-07-23T23:59:27;12.17;;;11.00;;
